createdAt,value
2023-05-24T00:01:16.666Z,16.09
2023-05-24T00:03:47.100Z,15.68
2023-05-24T00:06:17.300Z,15.15
2023-05-24T00:08:45.751Z,15.02
2023-05-24T00:11:14.148Z,14.96
2023-05-24T00:13:42.515Z,15.43
2023-05-24T00:16:11.072Z,15.62
2023-05-24T00:18:41.237Z,15.58
2023-05-24T00:21:09.812Z,15.22
2023-05-24T00:23:39.699Z,15.14
2023-05-24T00:26:08.002Z,15.40
2023-05-24T00:28:36.940Z,15.81
2023-05-24T00:31:05.352Z,16.02
2023-05-24T00:33:33.601Z,15.88
2023-05-24T00:36:01.988Z,15.58
2023-05-24T00:38:30.330Z,15.65
2023-05-24T00:41:01.561Z,15.69
2023-05-24T00:43:29.972Z,15.69
2023-05-24T00:46:15.435Z,14.90
2023-05-24T00:48:44.268Z,15.56
2023-05-24T00:51:15.006Z,15.68
2023-05-24T00:53:46.208Z,15.72
2023-05-24T00:56:17.478Z,15.46
2023-05-24T00:58:46.548Z,15.17
2023-05-24T01:01:15.381Z,14.93
2023-05-24T01:03:44.342Z,14.72
2023-05-24T01:06:16.248Z,14.82
2023-05-24T01:08:53.273Z,15.04
2023-05-24T01:11:31.235Z,15.04
2023-05-24T01:14:10.442Z,15.24
2023-05-24T01:16:47.872Z,15.30
2023-05-24T01:19:43.469Z,15.37
2023-05-24T01:22:25.703Z,15.38
2023-05-24T01:25:04.029Z,15.26
2023-05-24T01:27:35.733Z,15.15
2023-05-24T01:30:06.272Z,15.23
2023-05-24T01:32:34.988Z,15.39
2023-05-24T01:35:03.552Z,15.42
2023-05-24T01:37:31.823Z,15.35
2023-05-24T01:40:00.542Z,15.44
2023-05-24T01:42:37.954Z,15.31
2023-05-24T01:45:14.533Z,14.84
2023-05-24T01:47:52.946Z,14.86
2023-05-24T01:50:27.989Z,14.88
2023-05-24T01:53:00.118Z,14.92
2023-05-24T01:55:29.719Z,15.00
2023-05-24T01:58:03.916Z,15.10
2023-05-24T02:00:33.023Z,15.06
2023-05-24T02:03:03.434Z,15.13
2023-05-24T02:05:34.246Z,15.13
2023-05-24T02:08:02.585Z,15.25
2023-05-24T02:10:30.864Z,15.12
2023-05-24T02:13:00.865Z,14.88
2023-05-24T02:15:30.606Z,14.79
2023-05-24T02:17:59.083Z,14.93
2023-05-24T02:20:28.808Z,14.92
2023-05-24T02:22:57.261Z,14.80
2023-05-24T02:25:25.853Z,14.77
2023-05-24T02:27:54.212Z,15.02
2023-05-24T02:30:24.023Z,15.10
2023-05-24T02:32:52.478Z,14.94
2023-05-24T02:35:21.222Z,14.79
2023-05-24T02:37:50.109Z,14.76
2023-05-24T02:40:18.593Z,14.80
2023-05-24T02:42:46.896Z,14.87
2023-05-24T02:45:15.203Z,14.79
2023-05-24T02:47:45.560Z,14.19
2023-05-24T02:50:14.005Z,14.11
2023-05-24T02:52:42.378Z,14.45
2023-05-24T02:55:11.553Z,14.54
2023-05-24T02:57:40.213Z,14.33
2023-05-24T03:00:11.494Z,14.54
2023-05-24T03:02:41.340Z,14.63
2023-05-24T03:05:11.300Z,14.70
2023-05-24T03:07:39.601Z,14.71
2023-05-24T03:10:09.008Z,14.85
2023-05-24T03:12:37.481Z,14.90
2023-05-24T03:15:06.606Z,15.01
2023-05-24T03:17:35.053Z,15.08
2023-05-24T03:20:04.446Z,15.10
2023-05-24T03:22:34.245Z,15.11
2023-05-24T03:25:02.571Z,14.52
2023-05-24T03:27:30.926Z,14.97
2023-05-24T03:29:59.128Z,14.86
2023-05-24T03:32:27.540Z,14.45
2023-05-24T03:34:57.709Z,14.88
2023-05-24T03:37:26.051Z,14.87
2023-05-24T03:39:55.858Z,14.93
2023-05-24T03:42:24.119Z,15.05
2023-05-24T03:44:52.372Z,15.01
2023-05-24T03:47:20.806Z,14.88
2023-05-24T03:49:49.089Z,14.49
2023-05-24T03:52:17.457Z,13.82
2023-05-24T03:54:46.220Z,13.49
2023-05-24T03:57:16.048Z,13.61
2023-05-24T03:59:44.406Z,13.38
2023-05-24T04:02:12.778Z,13.28
2023-05-24T04:04:41.121Z,12.98
2023-05-24T04:07:11.971Z,13.06
2023-05-24T04:09:40.490Z,13.51
2023-05-24T04:12:08.845Z,14.02
2023-05-24T04:14:38.774Z,14.16
2023-05-24T04:17:08.053Z,14.15
2023-05-24T04:19:37.416Z,14.52
2023-05-24T04:22:06.152Z,14.63
2023-05-24T04:24:34.553Z,14.74
2023-05-24T04:27:03.275Z,14.83
2023-05-24T04:29:33.440Z,14.83
2023-05-24T04:32:03.236Z,14.73
2023-05-24T04:34:33.993Z,14.85
2023-05-24T04:37:02.480Z,15.15
2023-05-24T04:39:31.328Z,14.51
2023-05-24T04:42:00.760Z,14.51
2023-05-24T04:44:29.064Z,14.16
2023-05-24T04:46:58.169Z,13.98
2023-05-24T04:49:27.860Z,14.28
2023-05-24T04:51:56.259Z,14.74
2023-05-24T04:54:24.701Z,15.05
2023-05-24T04:56:53.341Z,15.47
2023-05-24T04:59:21.698Z,15.49
2023-05-24T05:01:50.186Z,15.10
2023-05-24T05:04:18.550Z,15.36
2023-05-24T05:06:48.945Z,14.94
2023-05-24T05:09:17.494Z,14.81
2023-05-24T05:14:32.836Z,14.80
2023-05-24T05:17:01.189Z,15.37
2023-05-24T05:19:29.545Z,16.07
2023-05-24T05:21:59.261Z,15.63
2023-05-24T05:24:27.554Z,15.17
2023-05-24T05:26:55.972Z,15.79
2023-05-24T05:29:24.607Z,16.35
2023-05-24T05:31:53.270Z,16.79
2023-05-24T05:34:21.697Z,17.04
2023-05-24T05:36:50.031Z,17.27
2023-05-24T05:39:19.876Z,17.68
2023-05-24T05:41:48.148Z,17.81
2023-05-24T05:44:16.550Z,18.03
2023-05-24T05:46:46.473Z,18.10
2023-05-24T05:49:15.943Z,17.57
2023-05-24T05:51:44.269Z,17.49
2023-05-24T05:54:15.697Z,17.52
2023-05-24T05:56:48.125Z,18.11
2023-05-24T05:59:16.907Z,17.79
2023-05-24T06:01:47.235Z,17.42
2023-05-24T06:04:15.766Z,17.57
2023-05-24T06:06:45.405Z,18.50
2023-05-24T06:09:13.762Z,18.90
2023-05-24T06:11:45.050Z,19.06
2023-05-24T06:14:19.964Z,18.85
2023-05-24T06:16:48.781Z,18.74
2023-05-24T06:19:17.204Z,18.39
2023-05-24T06:21:48.198Z,19.17
2023-05-24T06:24:20.653Z,19.09
2023-05-24T06:26:49.869Z,18.83
2023-05-24T06:29:21.161Z,18.46
2023-05-24T06:31:49.884Z,19.02
2023-05-24T06:34:21.437Z,18.97
2023-05-24T06:36:51.767Z,18.68
2023-05-24T06:39:20.283Z,19.33
2023-05-24T06:41:51.627Z,19.90
2023-05-24T06:44:25.207Z,20.24
2023-05-24T06:46:53.777Z,20.27
2023-05-24T06:49:22.556Z,20.52
2023-05-24T06:51:50.875Z,20.91
2023-05-24T06:54:19.355Z,21.47
2023-05-24T06:56:47.761Z,21.18
2023-05-24T06:59:16.165Z,21.23
2023-05-24T07:01:45.941Z,22.05
2023-05-24T07:04:14.440Z,22.04
2023-05-24T07:06:42.805Z,22.25
2023-05-24T07:09:11.288Z,22.17
2023-05-24T07:11:39.672Z,22.91
2023-05-24T07:14:08.171Z,22.88
2023-05-24T07:16:36.609Z,21.83
2023-05-24T07:19:06.375Z,22.55
2023-05-24T07:21:34.861Z,23.42
2023-05-24T07:24:04.107Z,23.63
2023-05-24T07:26:32.613Z,24.19
2023-05-24T07:29:01.065Z,24.64
2023-05-24T07:31:31.591Z,25.20
2023-05-24T07:33:59.936Z,24.74
2023-05-24T07:36:34.684Z,24.46
2023-05-24T07:39:05.466Z,25.11
2023-05-24T07:41:34.393Z,24.09
2023-05-24T07:44:02.658Z,25.09
2023-05-24T07:46:31.063Z,24.89
2023-05-24T07:48:59.620Z,25.39
2023-05-24T07:51:29.306Z,26.27
2023-05-24T07:53:57.751Z,25.73
2023-05-24T07:56:26.470Z,26.76
2023-05-24T07:58:59.525Z,26.92
2023-05-24T08:01:28.938Z,26.20
2023-05-24T08:03:57.873Z,25.80
2023-05-24T08:06:26.706Z,25.95
2023-05-24T08:08:56.621Z,26.68
2023-05-24T08:11:25.010Z,27.21
2023-05-24T08:13:53.386Z,27.63
2023-05-24T08:16:21.763Z,28.13
2023-05-24T08:18:52.527Z,28.51
2023-05-24T08:21:22.766Z,28.64
2023-05-24T08:23:51.257Z,26.55
2023-05-24T08:26:21.170Z,27.16
2023-05-24T08:28:49.532Z,26.74
2023-05-24T08:31:18.119Z,26.53
2023-05-24T08:33:50.563Z,27.48
2023-05-24T08:36:19.267Z,27.73
2023-05-24T08:38:47.571Z,28.36
2023-05-24T08:41:16.190Z,27.91
2023-05-24T08:43:47.430Z,27.73
2023-05-24T08:46:18.865Z,26.87
2023-05-24T08:48:48.439Z,27.98
2023-05-24T08:51:17.705Z,28.79
2023-05-24T08:53:49.092Z,29.32
2023-05-24T08:56:19.156Z,29.10
2023-05-24T08:58:49.654Z,30.14
2023-05-24T09:01:18.622Z,29.18
2023-05-24T09:03:48.155Z,29.36
2023-05-24T09:06:19.422Z,28.85
2023-05-24T09:08:47.708Z,29.84
2023-05-24T09:11:17.803Z,30.66
2023-05-24T09:13:49.434Z,30.48
2023-05-24T09:16:18.183Z,29.75
2023-05-24T09:18:46.585Z,29.35
2023-05-24T09:21:15.180Z,29.28
2023-05-24T09:23:44.213Z,30.45
2023-05-24T09:26:12.710Z,31.06
2023-05-24T09:28:41.931Z,31.63
2023-05-24T09:31:12.508Z,30.03
2023-05-24T09:33:41.356Z,30.58
2023-05-24T09:36:10.848Z,31.51
2023-05-24T09:38:39.204Z,30.72
2023-05-24T09:41:11.104Z,29.98
2023-05-24T09:43:50.076Z,30.91
2023-05-24T09:46:21.822Z,30.63
2023-05-24T09:48:59.822Z,30.93
2023-05-24T09:51:28.648Z,31.88
2023-05-24T09:53:59.176Z,32.66
2023-05-24T09:56:28.313Z,31.25
2023-05-24T09:58:57.228Z,32.17
2023-05-24T10:01:28.424Z,31.75
2023-05-24T10:03:59.037Z,31.64
2023-05-24T10:06:27.695Z,31.27
2023-05-24T10:08:57.268Z,31.82
2023-05-24T10:11:26.428Z,30.94
2023-05-24T10:13:55.270Z,31.12
2023-05-24T10:16:23.672Z,31.32
2023-05-24T10:18:54.563Z,30.03
2023-05-24T10:21:26.098Z,30.86
2023-05-24T10:23:59.858Z,31.91
2023-05-24T10:26:33.389Z,31.88
2023-05-24T10:29:08.108Z,31.01
2023-05-24T10:31:41.506Z,29.10
2023-05-24T10:34:11.878Z,29.02
2023-05-24T10:36:41.546Z,29.05
2023-05-24T10:39:13.178Z,30.09
2023-05-24T10:41:42.481Z,30.34
2023-05-24T10:44:14.482Z,31.20
2023-05-24T10:47:19.305Z,30.10
2023-05-24T10:49:53.616Z,29.55
2023-05-24T10:52:22.087Z,28.21
2023-05-24T10:55:08.216Z,28.21
2023-05-24T10:57:36.994Z,27.62
2023-05-24T11:03:02.757Z,26.51
2023-05-24T11:05:37.237Z,27.21
2023-05-24T11:08:09.644Z,27.81
2023-05-24T11:10:38.734Z,27.81
2023-05-24T11:13:09.676Z,28.08
2023-05-24T11:15:38.396Z,28.04
2023-05-24T11:18:17.256Z,28.14
2023-05-24T11:20:48.336Z,28.19
2023-05-24T11:23:18.036Z,27.97
2023-05-24T11:25:48.521Z,28.72
2023-05-24T11:28:16.866Z,29.32
2023-05-24T11:30:46.708Z,29.28
2023-05-24T11:33:20.148Z,29.33
2023-05-24T11:35:52.269Z,28.29
2023-05-24T11:38:24.158Z,27.39
2023-05-24T11:40:53.404Z,27.88
2023-05-24T11:43:22.477Z,27.53
2023-05-24T11:45:51.971Z,27.47
2023-05-24T11:48:21.535Z,28.09
2023-05-24T11:50:51.319Z,27.81
2023-05-24T11:53:21.325Z,27.56
2023-05-24T11:55:51.064Z,29.04
2023-05-24T11:58:24.805Z,29.90
2023-05-24T12:00:53.680Z,29.93
2023-05-24T12:03:22.091Z,30.20
2023-05-24T12:05:52.993Z,30.19
2023-05-24T12:08:21.391Z,30.55
2023-05-24T12:10:51.871Z,30.54
2023-05-24T12:13:23.341Z,30.73
2023-05-24T12:15:55.540Z,29.22
2023-05-24T12:18:26.998Z,30.04
2023-05-24T12:20:56.856Z,28.95
2023-05-24T12:23:27.893Z,28.71
2023-05-24T12:26:00.622Z,28.04
2023-05-24T12:28:29.022Z,28.25
2023-05-24T12:30:57.462Z,27.45
2023-05-24T12:33:26.177Z,27.41
2023-05-24T12:35:54.728Z,27.41
2023-05-24T12:38:26.399Z,27.36
2023-05-24T12:41:11.215Z,27.17
2023-05-24T12:43:41.767Z,27.64
2023-05-24T12:46:10.124Z,27.98
2023-05-24T12:48:38.821Z,27.76
2023-05-24T12:51:08.672Z,27.24
2023-05-24T12:53:38.327Z,27.35
2023-05-24T12:56:07.127Z,26.54
2023-05-24T12:58:35.482Z,26.91
2023-05-24T13:01:03.966Z,27.25
2023-05-24T13:03:32.415Z,27.02
2023-05-24T13:06:01.749Z,27.04
2023-05-24T13:08:30.292Z,26.71
2023-05-24T13:10:59.980Z,26.43
2023-05-24T13:13:29.036Z,26.53
2023-05-24T13:15:57.377Z,26.73
2023-05-24T13:18:26.539Z,27.54
2023-05-24T13:20:54.931Z,27.85
2023-05-24T13:23:23.620Z,27.91
2023-05-24T13:25:52.020Z,27.79
2023-05-24T13:28:22.376Z,27.61
2023-05-24T13:30:50.661Z,27.97
2023-05-24T13:33:19.029Z,28.08
2023-05-24T13:35:47.317Z,28.12
2023-05-24T13:38:15.622Z,27.69
2023-05-24T13:40:44.598Z,27.64
2023-05-24T13:43:13.083Z,27.99
2023-05-24T13:45:42.871Z,27.26
2023-05-24T13:48:11.561Z,27.62
2023-05-24T13:50:40.506Z,28.26
2023-05-24T13:53:09.104Z,28.21
2023-05-24T13:55:38.920Z,29.04
2023-05-24T13:58:07.426Z,29.29
2023-05-24T14:00:38.912Z,29.41
2023-05-24T14:03:08.910Z,29.66
2023-05-24T14:05:37.835Z,29.70
2023-05-24T14:08:07.092Z,30.27
2023-05-24T14:10:37.281Z,29.81
2023-05-24T14:15:38.005Z,27.90
2023-05-24T14:18:08.538Z,27.44
2023-05-24T14:20:40.385Z,27.47
2023-05-24T14:23:10.052Z,27.32
2023-05-24T14:25:38.645Z,26.76
2023-05-24T14:28:08.684Z,27.31
2023-05-24T14:30:38.838Z,27.47
2023-05-24T14:33:08.486Z,27.80
2023-05-24T14:35:40.243Z,27.42
2023-05-24T14:38:09.825Z,27.85
2023-05-24T14:40:39.991Z,28.04
2023-05-24T14:43:10.693Z,27.42
2023-05-24T14:45:41.775Z,27.37
2023-05-24T14:48:12.484Z,27.97
2023-05-24T14:50:43.410Z,27.89
2023-05-24T14:53:13.196Z,26.67
2023-05-24T14:55:43.311Z,27.01
2023-05-24T14:58:12.902Z,26.60
2023-05-24T15:00:42.424Z,26.48
2023-05-24T15:03:13.021Z,26.80
2023-05-24T15:05:43.254Z,26.48
2023-05-24T15:08:12.428Z,26.58
2023-05-24T15:10:41.112Z,26.18
2023-05-24T15:13:09.675Z,26.15
2023-05-24T15:15:38.057Z,26.31
2023-05-24T15:18:06.730Z,25.97
2023-05-24T15:20:35.881Z,25.73
2023-05-24T15:23:05.938Z,25.67
2023-05-24T15:25:34.238Z,25.97
2023-05-24T15:28:03.214Z,26.00
2023-05-24T15:30:31.744Z,25.88
2023-05-24T15:33:00.149Z,25.90
2023-05-24T15:35:28.554Z,25.60
2023-05-24T15:37:56.900Z,25.39
2023-05-24T15:40:26.881Z,24.93
2023-05-24T15:42:55.262Z,24.93
2023-05-24T15:45:23.581Z,24.86
2023-05-24T15:47:52.049Z,25.46
2023-05-24T15:50:31.779Z,25.46
2023-05-24T15:53:08.804Z,25.65
2023-05-24T15:55:39.192Z,25.92
2023-05-24T15:58:07.600Z,25.66
2023-05-24T16:00:36.008Z,25.64
2023-05-24T16:03:09.101Z,25.62
2023-05-24T16:05:37.745Z,25.27
2023-05-24T16:08:06.196Z,25.03
2023-05-24T16:10:35.738Z,25.40
2023-05-24T16:13:05.414Z,25.64
2023-05-24T16:15:36.071Z,25.60
2023-05-24T16:18:05.567Z,25.64
2023-05-24T16:20:33.878Z,25.66
2023-05-24T16:23:03.352Z,25.17
2023-05-24T16:25:31.686Z,25.38
2023-05-24T16:28:00.655Z,24.96
2023-05-24T16:30:30.499Z,24.74
2023-05-24T16:32:58.916Z,25.24
2023-05-24T16:35:27.334Z,25.30
2023-05-24T16:37:56.166Z,25.17
2023-05-24T16:40:24.470Z,25.21
2023-05-24T16:42:54.464Z,25.16
2023-05-24T16:45:22.842Z,25.11
2023-05-24T16:47:52.607Z,24.98
2023-05-24T16:50:20.970Z,25.00
2023-05-24T16:52:49.380Z,24.87
2023-05-24T16:55:17.803Z,24.80
2023-05-24T16:57:46.160Z,24.72
2023-05-24T17:00:15.450Z,24.62
2023-05-24T17:02:44.114Z,23.84
2023-05-24T17:05:13.871Z,23.38
2023-05-24T17:07:42.977Z,22.93
2023-05-24T17:10:11.467Z,22.77
2023-05-24T17:12:39.911Z,22.42
2023-05-24T17:15:09.049Z,22.34
2023-05-24T17:17:37.590Z,22.26
2023-05-24T17:20:07.079Z,22.52
2023-05-24T17:22:36.950Z,22.71
2023-05-24T17:25:05.523Z,22.45
2023-05-24T17:27:33.874Z,21.85
2023-05-24T17:30:02.378Z,22.11
2023-05-24T17:32:31.337Z,22.32
2023-05-24T17:34:59.803Z,22.31
2023-05-24T17:37:28.166Z,22.54
2023-05-24T17:39:57.954Z,22.64
2023-05-24T17:42:26.312Z,22.43
2023-05-24T17:44:54.888Z,22.51
2023-05-24T17:47:23.334Z,21.95
2023-05-24T17:49:52.042Z,21.98
2023-05-24T17:52:20.408Z,22.11
2023-05-24T17:54:49.515Z,22.07
2023-05-24T17:57:19.287Z,21.77
2023-05-24T17:59:47.604Z,22.11
2023-05-24T18:02:15.991Z,21.64
2023-05-24T18:04:44.465Z,22.04
2023-05-24T18:07:14.863Z,21.93
2023-05-24T18:09:43.194Z,21.96
2023-05-24T18:12:11.837Z,21.85
2023-05-24T18:14:42.554Z,21.61
2023-05-24T18:17:10.890Z,21.48
2023-05-24T18:19:39.280Z,21.58
2023-05-24T18:23:04.936Z,21.55
2023-05-24T18:25:33.373Z,21.60
2023-05-24T18:28:01.683Z,21.43
2023-05-24T18:30:31.379Z,21.42
2023-05-24T18:33:05.831Z,21.19
2023-05-24T18:35:36.369Z,20.77
2023-05-24T18:38:05.394Z,20.46
2023-05-24T18:40:33.672Z,20.55
2023-05-24T18:43:02.117Z,20.74
2023-05-24T18:45:31.951Z,20.58
2023-05-24T18:48:01.268Z,20.48
2023-05-24T18:50:29.675Z,20.17
2023-05-24T18:52:58.131Z,20.26
2023-05-24T18:55:26.495Z,19.84
2023-05-24T18:57:54.837Z,19.87
2023-05-24T19:00:24.650Z,20.24
2023-05-24T19:02:55.674Z,20.11
2023-05-24T19:05:24.062Z,20.06
2023-05-24T19:07:52.490Z,20.21
2023-05-24T19:10:20.870Z,20.29
2023-05-24T19:12:49.181Z,19.98
2023-05-24T19:15:17.600Z,19.90
2023-05-24T19:17:45.970Z,19.96
2023-05-24T19:20:15.849Z,19.57
2023-05-24T19:22:44.168Z,19.11
2023-05-24T19:25:12.468Z,19.11
2023-05-24T19:27:54.763Z,18.93
2023-05-24T19:30:27.424Z,19.11
2023-05-24T19:32:55.951Z,19.11
2023-05-24T19:35:25.819Z,18.91
2023-05-24T19:37:54.115Z,18.87
2023-05-24T19:40:22.456Z,19.13
2023-05-24T19:42:50.809Z,19.31
2023-05-24T19:45:19.317Z,19.22
2023-05-24T19:47:47.563Z,18.98
2023-05-24T19:50:15.932Z,18.94
2023-05-24T19:52:45.648Z,18.99
2023-05-24T19:55:13.945Z,19.21
2023-05-24T19:57:42.293Z,19.41
2023-05-24T20:00:12.499Z,19.38
2023-05-24T20:02:41.018Z,19.49
2023-05-24T20:05:28.252Z,19.53
2023-05-24T20:07:58.000Z,19.43
2023-05-24T20:10:27.760Z,19.43
2023-05-24T20:12:56.308Z,19.15
2023-05-24T20:15:28.522Z,19.22
2023-05-24T20:17:56.898Z,19.18
2023-05-24T20:20:25.936Z,19.25
2023-05-24T20:22:54.268Z,19.25
2023-05-24T20:25:24.030Z,19.23
2023-05-24T20:27:52.239Z,19.19
2023-05-24T20:30:20.709Z,19.18
2023-05-24T20:32:49.138Z,19.10
2023-05-24T20:35:17.561Z,19.09
2023-05-24T20:37:45.816Z,18.99
2023-05-24T20:40:18.455Z,19.02
2023-05-24T20:42:48.155Z,18.91
2023-05-24T20:45:16.894Z,18.82
2023-05-24T20:47:46.276Z,18.68
2023-05-24T20:50:15.853Z,18.43
2023-05-24T20:52:44.270Z,18.54
2023-05-24T20:55:12.753Z,18.67
2023-05-24T20:57:41.104Z,18.67
2023-05-24T21:00:11.832Z,18.67
2023-05-24T21:02:41.303Z,18.57
2023-05-24T21:05:10.491Z,18.58
2023-05-24T21:07:38.763Z,18.58
2023-05-24T21:10:08.420Z,18.43
2023-05-24T21:12:36.825Z,18.24
2023-05-24T21:15:05.500Z,18.14
2023-05-24T21:17:35.258Z,18.14
2023-05-24T21:20:04.302Z,18.28
2023-05-24T21:22:32.586Z,18.35
2023-05-24T21:25:00.781Z,18.34
2023-05-24T21:27:29.082Z,18.11
2023-05-24T21:29:57.276Z,18.07
2023-05-24T21:32:25.509Z,17.56
2023-05-24T21:34:55.151Z,17.82
2023-05-24T21:37:23.348Z,17.86
2023-05-24T21:39:51.721Z,17.86
2023-05-24T21:42:20.003Z,17.58
2023-05-24T21:44:48.285Z,17.50
2023-05-24T21:47:16.573Z,17.76
2023-05-24T21:49:44.902Z,17.83
2023-05-24T21:52:14.528Z,17.94
2023-05-24T21:54:42.748Z,17.97
2023-05-24T21:57:11.072Z,17.88
2023-05-24T21:59:39.294Z,17.86
2023-05-24T22:02:07.682Z,17.83
2023-05-24T22:04:36.047Z,17.84
2023-05-24T22:07:04.409Z,17.21
2023-05-24T22:09:34.212Z,16.94
2023-05-24T22:12:02.493Z,16.82
2023-05-24T22:14:30.744Z,17.11
2023-05-24T22:16:59.061Z,17.19
2023-05-24T22:19:40.077Z,17.31
2023-05-24T22:22:08.825Z,17.14
2023-05-24T22:24:38.629Z,17.24
2023-05-24T22:27:09.867Z,17.32
2023-05-24T22:29:38.210Z,17.49
2023-05-24T22:32:07.039Z,17.70
2023-05-24T22:34:35.693Z,17.66
2023-05-24T22:37:03.971Z,17.54
2023-05-24T22:39:32.417Z,17.52
2023-05-24T22:42:02.176Z,17.36
2023-05-24T22:44:30.475Z,17.38
2023-05-24T22:46:58.709Z,17.16
2023-05-24T22:49:29.661Z,17.27
2023-05-24T22:51:57.942Z,17.32
2023-05-24T22:54:26.197Z,17.40
2023-05-24T22:56:54.517Z,17.10
2023-05-24T22:59:24.394Z,17.47
2023-05-24T23:01:54.077Z,17.42
2023-05-24T23:04:22.430Z,17.44
2023-05-24T23:06:53.236Z,17.28
2023-05-24T23:09:29.275Z,16.96
2023-05-24T23:11:58.875Z,17.39
2023-05-24T23:14:30.535Z,17.32
2023-05-24T23:17:02.669Z,17.34
2023-05-24T23:19:31.385Z,17.01
2023-05-24T23:21:59.757Z,16.50
2023-05-24T23:24:28.185Z,16.73
2023-05-24T23:26:57.210Z,16.92
2023-05-24T23:29:25.556Z,16.93
2023-05-24T23:31:55.194Z,16.88
2023-05-24T23:34:23.622Z,16.44
2023-05-24T23:36:51.913Z,16.60
2023-05-24T23:39:20.377Z,16.60
2023-05-24T23:41:48.720Z,16.10
2023-05-24T23:44:17.257Z,16.64
2023-05-24T23:46:45.707Z,16.57
2023-05-24T23:49:15.419Z,16.85
2023-05-24T23:51:43.769Z,16.77
2023-05-24T23:54:14.813Z,16.81
2023-05-24T23:56:44.027Z,16.48
2023-05-24T23:59:12.766Z,16.90
